createdAt,value
2018-07-10T00:00:05.140Z,18.80
2018-07-10T00:01:05.151Z,18.80
2018-07-10T00:02:04.544Z,18.80
2018-07-10T00:03:05.265Z,18.80
2018-07-10T00:04:05.388Z,18.80
2018-07-10T00:05:05.569Z,18.80
2018-07-10T00:06:05.093Z,18.70
2018-07-10T00:07:04.622Z,18.70
2018-07-10T00:08:05.503Z,18.70
2018-07-10T00:09:05.324Z,18.70
2018-07-10T00:10:05.305Z,18.70
2018-07-10T00:11:04.953Z,18.70
2018-07-10T00:12:05.426Z,18.70
2018-07-10T00:13:05.407Z,18.70
2018-07-10T00:14:06.033Z,18.70
2018-07-10T00:15:04.576Z,18.70
2018-07-10T00:16:04.611Z,18.70
2018-07-10T00:17:05.657Z,18.70
2018-07-10T00:18:05.294Z,18.70
2018-07-10T00:19:04.989Z,18.70
2018-07-10T00:20:05.111Z,18.70
2018-07-10T00:21:04.649Z,18.70
2018-07-10T00:22:05.589Z,18.70
2018-07-10T00:23:05.540Z,18.70
2018-07-10T00:24:04.879Z,18.70
2018-07-10T00:25:05.520Z,18.70
2018-07-10T00:26:05.170Z,18.70
2018-07-10T00:27:05.398Z,18.70
2018-07-10T00:28:05.318Z,18.70
2018-07-10T00:29:04.980Z,18.70
2018-07-10T00:30:04.764Z,18.70
2018-07-10T00:31:05.619Z,18.70
2018-07-10T00:32:04.768Z,18.70
2018-07-10T00:33:05.405Z,18.70
2018-07-10T00:34:04.738Z,18.70
2018-07-10T00:35:05.305Z,18.70
2018-07-10T00:36:05.356Z,18.80
2018-07-10T00:37:05.519Z,18.80
2018-07-10T00:38:04.847Z,18.80
2018-07-10T00:39:04.958Z,18.80
2018-07-10T00:40:04.766Z,18.80
2018-07-10T00:41:05.167Z,18.80
2018-07-10T00:42:04.654Z,18.80
2018-07-10T00:43:05.341Z,18.80
2018-07-10T00:44:05.033Z,18.80
2018-07-10T00:45:05.299Z,18.80
2018-07-10T00:46:04.626Z,18.80
2018-07-10T00:47:05.036Z,18.80
2018-07-10T00:48:04.854Z,18.80
2018-07-10T00:49:05.518Z,18.80
2018-07-10T00:50:05.070Z,18.80
2018-07-10T00:51:05.516Z,18.80
2018-07-10T00:52:05.381Z,18.80
2018-07-10T00:53:04.731Z,18.80
2018-07-10T00:54:05.107Z,18.80
2018-07-10T00:55:05.012Z,18.80
2018-07-10T00:56:04.658Z,18.80
2018-07-10T00:57:04.848Z,18.80
2018-07-10T00:58:04.885Z,18.80
2018-07-10T00:59:05.305Z,18.80
2018-07-10T01:00:04.972Z,18.80
2018-07-10T01:01:05.474Z,18.80
2018-07-10T01:02:04.626Z,18.80
2018-07-10T01:03:04.916Z,18.70
2018-07-10T01:04:04.878Z,18.80
2018-07-10T01:05:10.601Z,18.70
2018-07-10T01:06:04.600Z,18.70
2018-07-10T01:07:06.034Z,18.70
2018-07-10T01:08:05.036Z,18.60
2018-07-10T01:09:05.185Z,18.60
2018-07-10T01:10:04.805Z,18.60
2018-07-10T01:11:05.297Z,18.60
2018-07-10T01:12:05.019Z,18.50
2018-07-10T01:13:05.551Z,18.50
2018-07-10T01:14:04.854Z,18.50
2018-07-10T01:15:04.677Z,18.40
2018-07-10T01:16:05.515Z,18.40
2018-07-10T01:17:05.371Z,18.40
2018-07-10T01:18:05.192Z,18.30
2018-07-10T01:19:05.452Z,18.30
2018-07-10T01:20:09.865Z,18.30
2018-07-10T01:21:04.841Z,18.20
2018-07-10T01:22:05.327Z,18.20
2018-07-10T01:23:05.206Z,18.20
2018-07-10T01:24:04.918Z,18.10
2018-07-10T01:25:04.656Z,18.10
2018-07-10T01:26:05.334Z,18.10
2018-07-10T01:27:05.197Z,18.00
2018-07-10T01:28:04.815Z,18.00
2018-07-10T01:29:05.326Z,18.00
2018-07-10T01:30:04.669Z,18.00
2018-07-10T01:31:04.935Z,18.00
2018-07-10T01:32:04.567Z,18.00
2018-07-10T01:33:05.339Z,17.90
2018-07-10T01:34:05.187Z,18.00
2018-07-10T01:35:05.198Z,17.90
2018-07-10T01:36:05.268Z,17.90
2018-07-10T01:37:05.176Z,17.90
2018-07-10T01:38:04.794Z,17.90
2018-07-10T01:39:04.930Z,17.90
2018-07-10T01:40:04.785Z,17.90
2018-07-10T01:41:05.277Z,17.90
2018-07-10T01:42:04.851Z,17.90
2018-07-10T01:43:05.369Z,17.90
2018-07-10T01:44:04.958Z,17.90
2018-07-10T01:45:05.419Z,17.90
2018-07-10T01:46:05.050Z,17.90
2018-07-10T01:47:04.696Z,17.90
2018-07-10T01:48:04.929Z,17.90
2018-07-10T01:49:04.626Z,17.90
2018-07-10T01:50:04.959Z,17.90
2018-07-10T01:51:05.508Z,17.90
2018-07-10T01:52:04.952Z,17.90
2018-07-10T01:53:05.176Z,17.90
2018-07-10T01:54:05.647Z,17.90
2018-07-10T01:55:04.939Z,17.90
2018-07-10T01:56:05.541Z,17.90
2018-07-10T01:57:05.144Z,17.90
2018-07-10T01:58:04.861Z,17.90
2018-07-10T01:59:04.785Z,17.90
2018-07-10T02:00:04.549Z,17.80
2018-07-10T02:01:05.301Z,17.80
2018-07-10T02:02:04.814Z,17.80
2018-07-10T02:03:05.567Z,17.80
2018-07-10T02:04:05.058Z,17.80
2018-07-10T02:05:04.821Z,17.80
2018-07-10T02:06:05.403Z,17.80
2018-07-10T02:07:04.776Z,17.80
2018-07-10T02:08:05.355Z,17.80
2018-07-10T02:09:05.397Z,17.80
2018-07-10T02:10:05.279Z,17.80
2018-07-10T02:11:04.683Z,17.80
2018-07-10T02:12:05.325Z,17.80
2018-07-10T02:13:04.935Z,17.70
2018-07-10T02:14:04.861Z,17.70
2018-07-10T02:15:05.489Z,17.70
2018-07-10T02:16:05.194Z,17.70
2018-07-10T02:17:04.879Z,17.70
2018-07-10T02:18:04.579Z,17.70
2018-07-10T02:19:05.485Z,17.70
2018-07-10T02:20:04.905Z,17.70
2018-07-10T02:21:04.897Z,17.70
2018-07-10T02:22:04.657Z,17.70
2018-07-10T02:23:05.195Z,17.70
2018-07-10T02:24:04.614Z,17.70
2018-07-10T02:25:04.590Z,17.70
2018-07-10T02:26:05.024Z,17.70
2018-07-10T02:27:05.156Z,17.70
2018-07-10T02:28:05.292Z,17.70
2018-07-10T02:29:04.639Z,17.70
2018-07-10T02:30:05.124Z,17.70
2018-07-10T02:31:04.738Z,17.70
2018-07-10T02:32:04.779Z,17.60
2018-07-10T02:33:05.437Z,17.60
2018-07-10T02:34:05.384Z,17.60
2018-07-10T02:35:05.112Z,17.60
2018-07-10T02:36:05.194Z,17.60
2018-07-10T02:37:05.361Z,17.60
2018-07-10T02:38:05.111Z,17.60
2018-07-10T02:39:04.941Z,17.60
2018-07-10T02:40:04.981Z,17.60
2018-07-10T02:41:05.284Z,17.60
2018-07-10T02:42:04.916Z,17.60
2018-07-10T02:43:04.868Z,17.60
2018-07-10T02:44:04.733Z,17.60
2018-07-10T02:45:04.532Z,17.50
2018-07-10T02:46:04.630Z,17.60
2018-07-10T02:47:05.439Z,17.50
2018-07-10T02:48:05.142Z,17.50
2018-07-10T02:49:05.435Z,17.50
2018-07-10T02:50:04.964Z,17.50
2018-07-10T02:51:05.560Z,17.50
2018-07-10T02:52:05.240Z,17.50
2018-07-10T02:53:05.186Z,17.50
2018-07-10T02:54:05.120Z,17.50
2018-07-10T02:55:05.197Z,17.50
2018-07-10T02:56:05.224Z,17.50
2018-07-10T02:57:09.758Z,17.50
2018-07-10T02:58:04.518Z,17.40
2018-07-10T02:59:04.608Z,17.40
2018-07-10T03:00:04.749Z,17.40
2018-07-10T03:01:04.675Z,17.40
2018-07-10T03:02:04.648Z,17.40
2018-07-10T03:03:05.540Z,17.40
2018-07-10T03:04:05.100Z,17.40
2018-07-10T03:05:04.643Z,17.40
2018-07-10T03:06:05.098Z,17.40
2018-07-10T03:07:05.134Z,17.40
2018-07-10T03:08:04.840Z,17.40
2018-07-10T03:09:05.259Z,17.40
2018-07-10T03:10:05.240Z,17.40
2018-07-10T03:11:04.658Z,17.40
2018-07-10T03:12:04.734Z,17.40
2018-07-10T03:13:04.789Z,17.40
2018-07-10T03:14:04.530Z,17.40
2018-07-10T03:15:04.929Z,17.40
2018-07-10T03:16:05.282Z,17.40
2018-07-10T03:17:05.370Z,17.40
2018-07-10T03:18:05.283Z,17.40
2018-07-10T03:19:05.204Z,17.40
2018-07-10T03:20:05.098Z,17.40
2018-07-10T03:21:04.769Z,17.40
2018-07-10T03:22:05.568Z,17.40
2018-07-10T03:23:05.021Z,17.30
2018-07-10T03:24:04.721Z,17.40
2018-07-10T03:25:05.284Z,17.30
2018-07-10T03:26:05.113Z,17.30
2018-07-10T03:27:04.607Z,17.30
2018-07-10T03:28:05.058Z,17.30
2018-07-10T03:29:05.347Z,17.20
2018-07-10T03:30:10.273Z,17.20
2018-07-10T03:31:04.951Z,17.20
2018-07-10T03:32:04.617Z,17.20
2018-07-10T03:33:05.306Z,17.20
2018-07-10T03:34:05.321Z,17.20
2018-07-10T03:35:04.871Z,17.20
2018-07-10T03:36:04.906Z,17.20
2018-07-10T03:37:05.541Z,17.20
2018-07-10T03:38:05.134Z,17.20
2018-07-10T03:39:04.968Z,17.20
2018-07-10T03:40:05.476Z,17.20
2018-07-10T03:41:05.241Z,17.20
2018-07-10T03:42:05.086Z,17.20
2018-07-10T03:43:05.157Z,17.20
2018-07-10T03:44:04.890Z,17.30
2018-07-10T03:45:04.730Z,17.20
2018-07-10T03:46:05.227Z,17.20
2018-07-10T03:47:04.555Z,17.30
2018-07-10T03:48:04.635Z,17.30
2018-07-10T03:49:05.100Z,17.30
2018-07-10T03:50:05.160Z,17.30
2018-07-10T03:51:05.116Z,17.30
2018-07-10T03:52:04.589Z,17.30
2018-07-10T03:53:04.801Z,17.30
2018-07-10T03:54:04.939Z,17.30
2018-07-10T03:55:05.399Z,17.30
2018-07-10T03:56:04.785Z,17.30
2018-07-10T03:57:05.051Z,17.30
2018-07-10T03:58:05.400Z,17.30
2018-07-10T03:59:04.855Z,17.30
2018-07-10T04:00:04.957Z,17.20
2018-07-10T04:01:04.717Z,17.30
2018-07-10T04:02:05.389Z,17.20
2018-07-10T04:03:05.301Z,17.30
2018-07-10T04:04:05.152Z,17.30
2018-07-10T04:05:05.491Z,17.20
2018-07-10T04:06:05.449Z,17.30
2018-07-10T04:07:04.943Z,17.20
2018-07-10T04:08:05.591Z,17.20
2018-07-10T04:09:05.127Z,17.30
2018-07-10T04:10:05.310Z,17.30
2018-07-10T04:11:04.859Z,17.20
2018-07-10T04:12:04.570Z,17.30
2018-07-10T04:13:05.363Z,17.30
2018-07-10T04:14:04.910Z,17.30
2018-07-10T04:15:04.565Z,17.20
2018-07-10T04:16:05.024Z,17.30
2018-07-10T04:17:05.204Z,17.20
2018-07-10T04:18:04.921Z,17.30
2018-07-10T04:19:04.877Z,17.30
2018-07-10T04:20:05.120Z,17.20
2018-07-10T04:21:04.798Z,17.30
2018-07-10T04:22:04.904Z,17.30
2018-07-10T04:23:05.256Z,17.20
2018-07-10T04:24:04.771Z,17.30
2018-07-10T04:25:05.689Z,17.30
2018-07-10T04:26:05.418Z,17.20
2018-07-10T04:27:05.096Z,17.20
2018-07-10T04:28:04.880Z,17.20
2018-07-10T04:29:04.734Z,17.20
2018-07-10T04:30:05.517Z,17.30
2018-07-10T04:31:04.980Z,17.30
2018-07-10T04:32:04.623Z,17.20
2018-07-10T04:33:05.110Z,17.20
2018-07-10T04:34:04.977Z,17.30
2018-07-10T04:35:05.068Z,17.20
2018-07-10T04:36:04.722Z,17.20
2018-07-10T04:37:05.579Z,17.20
2018-07-10T04:38:04.858Z,17.20
2018-07-10T04:39:04.658Z,17.20
2018-07-10T04:40:10.429Z,17.20
2018-07-10T04:41:04.952Z,17.20
2018-07-10T04:42:05.363Z,17.20
2018-07-10T04:43:04.994Z,17.20
2018-07-10T04:44:05.520Z,17.20
2018-07-10T04:45:05.016Z,17.20
2018-07-10T04:46:05.002Z,17.20
2018-07-10T04:47:05.381Z,17.20
2018-07-10T04:48:05.560Z,17.20
2018-07-10T04:49:05.488Z,17.20
2018-07-10T04:50:05.082Z,17.20
2018-07-10T04:51:04.611Z,17.20
2018-07-10T04:52:05.274Z,17.20
2018-07-10T04:53:04.861Z,17.20
2018-07-10T04:54:04.548Z,17.20
2018-07-10T04:55:05.113Z,17.20
2018-07-10T04:56:05.497Z,17.20
2018-07-10T04:57:04.810Z,17.20
2018-07-10T04:58:05.392Z,17.20
2018-07-10T04:59:04.891Z,17.20
2018-07-10T05:00:05.360Z,17.20
2018-07-10T05:01:04.879Z,17.20
2018-07-10T05:02:05.367Z,17.20
2018-07-10T05:03:04.928Z,17.20
2018-07-10T05:04:05.192Z,17.20
2018-07-10T05:05:05.147Z,17.20
2018-07-10T05:06:04.851Z,17.20
2018-07-10T05:07:05.394Z,17.20
2018-07-10T05:08:04.672Z,17.20
2018-07-10T05:09:10.279Z,17.20
2018-07-10T05:10:04.959Z,17.20
2018-07-10T05:11:05.208Z,17.20
2018-07-10T05:12:05.515Z,17.20
2018-07-10T05:13:05.258Z,17.20
2018-07-10T05:14:05.301Z,17.20
2018-07-10T05:15:04.905Z,17.20
2018-07-10T05:16:04.597Z,17.20
2018-07-10T05:17:05.182Z,17.20
2018-07-10T05:18:05.037Z,17.20
2018-07-10T05:19:05.460Z,17.10
2018-07-10T05:20:04.537Z,17.10
2018-07-10T05:21:04.965Z,17.10
2018-07-10T05:22:05.600Z,17.10
2018-07-10T05:23:05.143Z,17.10
2018-07-10T05:24:04.739Z,17.10
2018-07-10T05:25:05.344Z,17.00
2018-07-10T05:26:04.798Z,17.00
2018-07-10T05:27:05.145Z,17.00
2018-07-10T05:28:05.024Z,16.90
2018-07-10T05:29:05.423Z,16.90
2018-07-10T05:30:05.241Z,16.80
2018-07-10T05:31:05.287Z,16.80
2018-07-10T05:32:04.608Z,16.70
2018-07-10T05:33:04.993Z,16.70
2018-07-10T05:34:04.628Z,16.60
2018-07-10T05:35:05.154Z,16.60
2018-07-10T05:36:04.804Z,16.50
2018-07-10T05:37:04.653Z,16.40
2018-07-10T05:38:05.440Z,16.30
2018-07-10T05:39:05.562Z,16.30
2018-07-10T05:40:05.161Z,16.20
2018-07-10T05:41:04.982Z,16.10
2018-07-10T05:42:05.093Z,16.10
2018-07-10T05:43:04.767Z,16.00
2018-07-10T05:44:05.058Z,16.00
2018-07-10T05:45:05.559Z,15.90
2018-07-10T05:46:05.127Z,15.90
2018-07-10T05:47:05.504Z,15.80
2018-07-10T05:48:05.416Z,15.80
2018-07-10T05:49:05.014Z,15.80
2018-07-10T05:50:04.797Z,15.80
2018-07-10T05:51:05.624Z,15.70
2018-07-10T05:52:05.136Z,15.70
2018-07-10T05:53:05.119Z,15.70
2018-07-10T05:54:05.043Z,15.70
2018-07-10T05:55:04.950Z,15.70
2018-07-10T05:56:05.179Z,15.70
2018-07-10T05:57:05.466Z,15.70
2018-07-10T05:58:04.600Z,15.70
2018-07-10T05:59:05.069Z,15.70
2018-07-10T06:00:04.877Z,15.70
2018-07-10T06:01:05.435Z,15.70
2018-07-10T06:02:04.978Z,15.70
2018-07-10T06:03:04.773Z,15.70
2018-07-10T06:04:05.406Z,15.70
2018-07-10T06:05:05.192Z,15.70
2018-07-10T06:06:04.839Z,15.70
2018-07-10T06:07:04.900Z,15.70
2018-07-10T06:08:04.536Z,15.70
2018-07-10T06:09:05.553Z,15.70
2018-07-10T06:10:05.317Z,15.70
2018-07-10T06:11:04.660Z,15.70
2018-07-10T06:12:05.133Z,15.60
2018-07-10T06:13:04.736Z,15.60
2018-07-10T06:14:05.239Z,15.60
2018-07-10T06:15:05.523Z,15.60
2018-07-10T06:16:05.496Z,15.60
2018-07-10T06:17:04.865Z,15.50
2018-07-10T06:18:04.852Z,15.50
2018-07-10T06:19:05.328Z,15.50
2018-07-10T06:20:05.388Z,15.50
2018-07-10T06:21:04.938Z,15.40
2018-07-10T06:22:05.685Z,15.40
2018-07-10T06:23:04.689Z,15.40
2018-07-10T06:24:05.158Z,15.30
2018-07-10T06:25:04.931Z,15.30
2018-07-10T06:26:05.275Z,15.20
2018-07-10T06:27:05.368Z,15.20
2018-07-10T06:28:04.879Z,15.20
2018-07-10T06:29:05.423Z,15.20
2018-07-10T06:30:04.640Z,15.10
2018-07-10T06:31:05.029Z,15.10
2018-07-10T06:32:04.780Z,15.10
2018-07-10T06:33:04.826Z,15.10
2018-07-10T06:34:04.877Z,15.10
2018-07-10T06:35:05.506Z,15.00
2018-07-10T06:36:05.423Z,15.00
2018-07-10T06:37:05.484Z,15.00
2018-07-10T06:38:05.049Z,15.00
2018-07-10T06:39:04.603Z,15.00
2018-07-10T06:40:05.367Z,15.00
2018-07-10T06:41:05.413Z,15.00
2018-07-10T06:42:05.217Z,15.00
2018-07-10T06:43:05.196Z,15.00
2018-07-10T06:44:05.011Z,15.00
2018-07-10T06:45:05.435Z,15.00
2018-07-10T06:46:04.868Z,14.90
2018-07-10T06:47:04.706Z,14.90
2018-07-10T06:48:04.881Z,14.90
2018-07-10T06:49:05.024Z,14.90
2018-07-10T06:50:06.527Z,14.90
2018-07-10T06:51:04.659Z,14.90
2018-07-10T06:52:04.933Z,14.90
2018-07-10T06:53:05.188Z,14.90
2018-07-10T06:54:05.148Z,14.90
2018-07-10T06:55:05.018Z,14.90
2018-07-10T06:56:04.633Z,14.90
2018-07-10T06:57:10.232Z,14.90
2018-07-10T06:58:04.927Z,14.90
2018-07-10T06:59:04.633Z,14.90
2018-07-10T07:00:04.542Z,14.90
2018-07-10T07:01:05.331Z,14.80
2018-07-10T07:02:05.165Z,14.80
2018-07-10T07:03:04.582Z,14.80
2018-07-10T07:04:04.834Z,14.80
2018-07-10T07:05:05.283Z,14.80
2018-07-10T07:06:04.644Z,14.80
2018-07-10T07:07:04.737Z,14.80
2018-07-10T07:08:09.732Z,14.80
2018-07-10T07:09:05.046Z,14.80
2018-07-10T07:10:05.086Z,14.80
2018-07-10T07:11:04.770Z,14.90
2018-07-10T07:12:04.675Z,14.90
2018-07-10T07:13:05.151Z,14.90
2018-07-10T07:14:04.832Z,14.90
2018-07-10T07:15:05.433Z,14.90
2018-07-10T07:16:05.193Z,15.00
2018-07-10T07:17:05.316Z,15.00
2018-07-10T07:18:05.425Z,15.00
2018-07-10T07:19:04.625Z,15.00
2018-07-10T07:20:05.402Z,15.00
2018-07-10T07:21:05.169Z,15.00
2018-07-10T07:22:04.944Z,15.00
2018-07-10T07:23:05.392Z,15.10
2018-07-10T07:24:04.739Z,15.10
2018-07-10T07:25:05.250Z,15.10
2018-07-10T07:26:04.667Z,15.10
2018-07-10T07:27:05.045Z,15.10
2018-07-10T07:28:04.951Z,15.10
2018-07-10T07:29:04.924Z,15.20
2018-07-10T07:30:04.856Z,15.20
2018-07-10T07:31:05.433Z,15.20
2018-07-10T07:32:05.050Z,15.20
2018-07-10T07:33:04.714Z,15.20
2018-07-10T07:34:05.323Z,15.20
2018-07-10T07:35:05.074Z,15.20
2018-07-10T07:36:05.418Z,15.20
2018-07-10T07:37:05.172Z,15.20
2018-07-10T07:38:05.009Z,15.20
2018-07-10T07:39:04.842Z,15.20
2018-07-10T07:40:05.488Z,15.20
2018-07-10T07:41:05.529Z,15.20
2018-07-10T07:42:04.845Z,15.20
2018-07-10T07:43:05.440Z,15.20
2018-07-10T07:44:05.447Z,15.20
2018-07-10T07:45:05.161Z,15.20
2018-07-10T07:46:04.720Z,15.20
2018-07-10T07:47:04.757Z,15.20
2018-07-10T07:48:05.113Z,15.20
2018-07-10T07:49:04.895Z,15.20
2018-07-10T07:50:05.359Z,15.20
2018-07-10T07:51:05.183Z,15.20
2018-07-10T07:52:04.559Z,15.10
2018-07-10T07:53:04.994Z,15.10
2018-07-10T07:54:05.288Z,15.10
2018-07-10T07:55:04.801Z,15.00
2018-07-10T07:56:04.696Z,15.00
2018-07-10T07:57:05.343Z,14.90
2018-07-10T07:58:04.518Z,14.90
2018-07-10T07:59:05.213Z,14.90
2018-07-10T08:00:04.867Z,14.90
2018-07-10T08:01:05.320Z,14.90
2018-07-10T08:02:04.838Z,14.90
2018-07-10T08:03:05.130Z,14.90
2018-07-10T08:04:04.805Z,14.90
2018-07-10T08:05:05.363Z,14.90
2018-07-10T08:06:05.040Z,14.90
2018-07-10T08:07:05.257Z,14.90
2018-07-10T08:08:05.356Z,14.90
2018-07-10T08:09:04.998Z,14.90
2018-07-10T08:10:05.393Z,14.90
2018-07-10T08:11:04.595Z,14.90
2018-07-10T08:12:05.396Z,14.90
2018-07-10T08:13:05.247Z,14.90
2018-07-10T08:14:05.105Z,14.90
2018-07-10T08:15:04.891Z,14.90
2018-07-10T08:16:05.319Z,14.90
2018-07-10T08:17:05.445Z,14.90
2018-07-10T08:18:04.884Z,15.00
2018-07-10T08:19:05.180Z,15.00
2018-07-10T08:20:04.807Z,15.00
2018-07-10T08:21:05.020Z,15.00
2018-07-10T08:22:04.864Z,15.00
2018-07-10T08:23:10.414Z,15.00
2018-07-10T08:24:05.125Z,15.00
2018-07-10T08:25:05.479Z,15.00
2018-07-10T08:26:05.009Z,15.00
2018-07-10T08:27:05.412Z,15.00
2018-07-10T08:28:04.890Z,15.00
2018-07-10T08:29:04.619Z,15.00
2018-07-10T08:30:04.652Z,15.00
2018-07-10T08:31:04.792Z,15.00
2018-07-10T08:32:04.798Z,15.00
2018-07-10T08:33:05.464Z,15.00
2018-07-10T08:34:04.987Z,15.00
2018-07-10T08:35:05.403Z,15.10
2018-07-10T08:36:05.172Z,15.10
2018-07-10T08:37:04.807Z,15.10
2018-07-10T08:38:04.776Z,15.10
2018-07-10T08:39:05.226Z,15.10
2018-07-10T08:40:05.161Z,15.20
2018-07-10T08:41:04.809Z,15.20
2018-07-10T08:42:05.286Z,15.20
2018-07-10T08:43:05.240Z,15.20
2018-07-10T08:44:05.544Z,15.20
2018-07-10T08:45:05.416Z,15.20
2018-07-10T08:46:04.843Z,15.20
2018-07-10T08:47:04.878Z,15.20
2018-07-10T08:48:04.605Z,15.30
2018-07-10T08:49:05.161Z,15.20
2018-07-10T08:50:04.850Z,15.20
2018-07-10T08:51:05.353Z,15.20
2018-07-10T08:52:04.963Z,15.20
2018-07-10T08:53:04.955Z,15.20
2018-07-10T08:54:05.395Z,15.20
2018-07-10T08:55:05.023Z,15.20
2018-07-10T08:56:04.805Z,15.20
2018-07-10T08:57:04.597Z,15.20
2018-07-10T08:58:05.536Z,15.30
2018-07-10T08:59:04.728Z,15.30
2018-07-10T09:00:04.873Z,15.30
2018-07-10T09:01:04.648Z,15.30
2018-07-10T09:02:05.342Z,15.30
2018-07-10T09:03:04.877Z,15.40
2018-07-10T09:04:04.555Z,15.40
2018-07-10T09:05:05.112Z,15.40
2018-07-10T09:06:04.714Z,15.50
2018-07-10T09:07:05.175Z,15.50
2018-07-10T09:08:05.659Z,15.50
2018-07-10T09:09:04.925Z,15.50
2018-07-10T09:10:04.608Z,15.60
2018-07-10T09:11:04.614Z,15.60
2018-07-10T09:12:04.605Z,15.60
2018-07-10T09:13:05.136Z,15.70
2018-07-10T09:14:04.920Z,15.70
2018-07-10T09:15:04.717Z,15.70
2018-07-10T09:16:04.562Z,15.70
2018-07-10T09:17:05.097Z,15.80
2018-07-10T09:18:04.687Z,15.80
2018-07-10T09:19:04.846Z,15.80
2018-07-10T09:20:04.593Z,15.90
2018-07-10T09:21:05.429Z,15.90
2018-07-10T09:22:09.989Z,15.90
2018-07-10T09:23:04.929Z,15.90
2018-07-10T09:24:04.556Z,16.00
2018-07-10T09:25:05.283Z,16.00
2018-07-10T09:26:04.975Z,16.10
2018-07-10T09:27:05.401Z,16.10
2018-07-10T09:28:05.406Z,16.20
2018-07-10T09:29:04.893Z,16.20
2018-07-10T09:30:05.157Z,16.20
2018-07-10T09:31:05.487Z,16.30
2018-07-10T09:32:05.080Z,16.30
2018-07-10T09:33:04.988Z,16.40
2018-07-10T09:34:05.519Z,16.40
2018-07-10T09:35:05.325Z,16.50
2018-07-10T09:36:05.018Z,16.60
2018-07-10T09:37:05.492Z,16.70
2018-07-10T09:38:04.963Z,16.80
2018-07-10T09:39:04.786Z,16.80
2018-07-10T09:40:05.044Z,17.00
2018-07-10T09:41:04.696Z,17.00
2018-07-10T09:42:04.915Z,17.10
2018-07-10T09:43:05.079Z,17.20
2018-07-10T09:44:05.634Z,17.20
2018-07-10T09:45:04.805Z,17.30
2018-07-10T09:46:05.285Z,17.30
2018-07-10T09:47:04.983Z,17.40
2018-07-10T09:48:05.347Z,17.40
2018-07-10T09:49:04.692Z,17.40
2018-07-10T09:50:05.386Z,17.50
2018-07-10T09:51:04.610Z,17.50
2018-07-10T09:52:05.428Z,17.50
2018-07-10T09:53:05.950Z,17.50
2018-07-10T09:54:04.578Z,17.50
2018-07-10T09:55:05.383Z,17.50
2018-07-10T09:56:04.797Z,17.50
2018-07-10T09:57:05.497Z,17.50
2018-07-10T09:58:05.113Z,17.60
2018-07-10T09:59:04.653Z,17.60
2018-07-10T10:00:04.812Z,17.60
2018-07-10T10:01:05.135Z,17.70
2018-07-10T10:02:05.183Z,17.70
2018-07-10T10:03:04.677Z,17.80
2018-07-10T10:04:05.417Z,17.80
2018-07-10T10:05:05.253Z,17.90
2018-07-10T10:06:05.338Z,18.00
2018-07-10T10:07:04.910Z,18.10
2018-07-10T10:08:04.595Z,18.10
2018-07-10T10:09:05.276Z,18.10
2018-07-10T10:10:05.008Z,18.20
2018-07-10T10:11:05.477Z,18.20
2018-07-10T10:12:04.884Z,18.20
2018-07-10T10:13:05.459Z,18.20
2018-07-10T10:14:04.857Z,18.20
2018-07-10T10:15:05.378Z,18.20
2018-07-10T10:16:05.562Z,18.30
2018-07-10T10:17:04.877Z,18.30
2018-07-10T10:18:05.366Z,18.30
2018-07-10T10:19:05.428Z,18.30
2018-07-10T10:20:04.810Z,18.30
2018-07-10T10:21:05.332Z,18.40
2018-07-10T10:22:05.132Z,18.40
2018-07-10T10:23:04.993Z,18.50
2018-07-10T10:24:04.902Z,18.50
2018-07-10T10:25:04.697Z,18.60
2018-07-10T10:26:05.188Z,18.60
2018-07-10T10:27:05.273Z,18.70
2018-07-10T10:28:05.157Z,18.70
2018-07-10T10:29:05.087Z,18.80
2018-07-10T10:30:04.805Z,18.80
2018-07-10T10:31:04.939Z,18.80
2018-07-10T10:32:04.948Z,18.90
2018-07-10T10:33:05.457Z,18.90
2018-07-10T10:34:05.061Z,18.90
2018-07-10T10:35:05.367Z,19.00
2018-07-10T10:36:04.536Z,19.00
2018-07-10T10:37:05.513Z,19.10
2018-07-10T10:38:05.118Z,19.10
2018-07-10T10:39:05.294Z,19.10
2018-07-10T10:40:04.778Z,19.20
2018-07-10T10:41:05.157Z,19.20
2018-07-10T10:42:04.977Z,19.20
2018-07-10T10:43:05.055Z,19.20
2018-07-10T10:44:04.813Z,19.20
2018-07-10T10:45:04.616Z,19.20
2018-07-10T10:46:05.034Z,19.20
2018-07-10T10:47:04.582Z,19.20
2018-07-10T10:48:05.132Z,19.20
2018-07-10T10:49:04.533Z,19.20
2018-07-10T10:50:05.208Z,19.20
2018-07-10T10:51:05.005Z,19.20
2018-07-10T10:52:05.520Z,19.20
2018-07-10T10:53:05.530Z,19.10
2018-07-10T10:54:05.475Z,19.10
2018-07-10T10:55:04.900Z,19.10
2018-07-10T10:56:05.071Z,19.00
2018-07-10T10:57:04.883Z,19.00
2018-07-10T10:58:05.418Z,18.90
2018-07-10T10:59:04.715Z,18.90
2018-07-10T11:00:05.350Z,18.80
2018-07-10T11:01:05.273Z,18.80
2018-07-10T11:02:04.652Z,18.80
2018-07-10T11:03:05.439Z,18.80
2018-07-10T11:04:04.630Z,18.80
2018-07-10T11:05:04.862Z,18.80
2018-07-10T11:06:05.433Z,18.80
2018-07-10T11:07:05.052Z,18.70
2018-07-10T11:08:05.073Z,18.70
2018-07-10T11:09:05.481Z,18.70
2018-07-10T11:10:05.311Z,18.70
2018-07-10T11:11:05.161Z,18.70
2018-07-10T11:12:04.805Z,18.60
2018-07-10T11:13:05.445Z,18.60
2018-07-10T11:14:05.329Z,18.60
2018-07-10T11:15:04.758Z,18.60
2018-07-10T11:16:04.800Z,18.60
2018-07-10T11:17:05.175Z,18.60
2018-07-10T11:18:05.470Z,18.70
2018-07-10T11:19:05.300Z,18.70
2018-07-10T11:20:05.115Z,18.70
2018-07-10T11:21:05.157Z,18.70
2018-07-10T11:22:04.831Z,18.80
2018-07-10T11:23:05.417Z,18.80
2018-07-10T11:24:04.844Z,18.80
2018-07-10T11:25:05.261Z,18.90
2018-07-10T11:26:05.010Z,18.90
2018-07-10T11:27:04.657Z,18.90
2018-07-10T11:28:04.706Z,18.90
2018-07-10T11:29:04.572Z,18.90
2018-07-10T11:30:05.351Z,18.90
2018-07-10T11:31:05.096Z,18.90
2018-07-10T11:32:04.780Z,18.80
2018-07-10T11:33:04.539Z,18.80
2018-07-10T11:34:04.901Z,18.80
2018-07-10T11:35:04.983Z,18.80
2018-07-10T11:36:05.229Z,18.80
2018-07-10T11:37:04.724Z,18.80
2018-07-10T11:38:05.426Z,18.80
2018-07-10T11:39:05.058Z,18.80
2018-07-10T11:40:04.864Z,18.80
2018-07-10T11:41:05.092Z,18.80
2018-07-10T11:42:05.045Z,18.80
2018-07-10T11:43:04.633Z,18.80
2018-07-10T11:44:05.012Z,18.80
2018-07-10T11:45:04.976Z,18.80
2018-07-10T11:46:05.337Z,18.80
2018-07-10T11:47:04.688Z,18.90
2018-07-10T11:48:05.460Z,18.90
2018-07-10T11:49:04.862Z,18.90
2018-07-10T11:50:05.296Z,18.90
2018-07-10T11:51:04.710Z,18.90
2018-07-10T11:52:05.219Z,18.90
2018-07-10T11:53:04.605Z,18.90
2018-07-10T11:54:04.728Z,18.90
2018-07-10T11:55:04.940Z,18.90
2018-07-10T11:56:05.451Z,18.80
2018-07-10T11:57:05.516Z,18.80
2018-07-10T11:58:05.626Z,18.80
2018-07-10T11:59:05.025Z,18.80
2018-07-10T12:00:04.845Z,18.80
2018-07-10T12:01:04.686Z,18.80
2018-07-10T12:02:04.718Z,18.80
2018-07-10T12:03:05.452Z,18.80
2018-07-10T12:04:05.525Z,18.80
2018-07-10T12:05:05.502Z,18.80
2018-07-10T12:06:05.131Z,18.90
2018-07-10T12:07:05.314Z,18.90
2018-07-10T12:08:05.140Z,18.90
2018-07-10T12:09:05.387Z,19.00
2018-07-10T12:10:04.838Z,19.00
2018-07-10T12:11:04.612Z,19.00
2018-07-10T12:12:05.243Z,19.00
2018-07-10T12:13:04.595Z,19.00
2018-07-10T12:14:05.514Z,19.10
2018-07-10T12:15:05.095Z,19.10
2018-07-10T12:16:04.587Z,19.10
2018-07-10T12:17:05.436Z,19.10
2018-07-10T12:18:04.670Z,19.20
2018-07-10T12:19:04.583Z,19.20
2018-07-10T12:20:05.212Z,19.20
2018-07-10T12:21:04.732Z,19.20
2018-07-10T12:22:04.588Z,19.20
2018-07-10T12:23:05.163Z,19.30
2018-07-10T12:24:04.734Z,19.30
2018-07-10T12:25:04.622Z,19.40
2018-07-10T12:26:05.101Z,19.40
2018-07-10T12:27:04.576Z,19.40
2018-07-10T12:28:05.653Z,19.50
2018-07-10T12:29:05.354Z,19.50
2018-07-10T12:30:04.992Z,19.50
2018-07-10T12:31:05.350Z,19.50
2018-07-10T12:32:04.794Z,19.60
2018-07-10T12:33:05.338Z,19.50
2018-07-10T12:34:05.489Z,19.50
2018-07-10T12:35:05.504Z,19.60
2018-07-10T12:36:04.905Z,19.60
2018-07-10T12:37:05.386Z,19.50
2018-07-10T12:38:05.012Z,19.60
2018-07-10T12:39:05.017Z,19.60
2018-07-10T12:40:04.869Z,19.60
2018-07-10T12:41:05.520Z,19.70
2018-07-10T12:42:04.817Z,19.70
2018-07-10T12:43:06.300Z,19.70
2018-07-10T12:44:05.568Z,19.80
2018-07-10T12:45:04.690Z,19.80
2018-07-10T12:46:04.715Z,19.80
2018-07-10T12:47:05.212Z,19.90
2018-07-10T12:48:04.649Z,19.90
2018-07-10T12:49:05.397Z,20.00
2018-07-10T12:50:04.730Z,20.00
2018-07-10T12:51:04.689Z,20.00
2018-07-10T12:52:05.394Z,20.00